»·PEaware :: PAA576 KJAC-KLAS

PAA576 :: KJAC-KLAS

FLIGHT INFORMATION

Flight Status: Arrived
Operator:
PanAm
More flights by this operator :: More flights under this callsign
Pilot: Anonymous 8274 (8274)
Aircraft: BOEING 727-200
(B722)
More flights by this aircraft type
Origin: KJAC Jackson Hole
United States
Destination: KLAS McCarran Intl
United States
More flights between these airports :: More routes between these airports
Route: +TCH J11 BCE LUXOR2
File this flight plan on PilotEdge
Remarks:
Altitude:
(Current/Filed)
32,000ft
Speed:
(Current/Filed)
470kts
Departed: 18-Nov-18 02:20 PM
Arrived: 18-Nov-18 03:48 PM
Distance/Time
Traveled:
495nm/1:28
Distance/Time
To Go:
Arrived

Flight Plot

Page will automatically refresh every two minutes.

Flight plan parsing failed; only flown route is shown


Map Options




Map Legend


Flown Route
Filed Route
Departure Airport
Arrival Airport
Navaid (VOR, NDB)
Fix

Horizontal Profiles

Position Reports

Time Latitude Longitude Heading Altitude Ground
Speed
18-Nov-18 13:50 43.603514 -110.737185 109 6432ft 0kts
18-Nov-18 13:51 43.603514 -110.737185 109 6432ft 0kts
18-Nov-18 13:52 43.603514 -110.737185 109 6431ft 0kts
18-Nov-18 13:53 43.603514 -110.737185 109 6431ft 0kts
18-Nov-18 13:54 43.603514 -110.737185 109 6431ft 0kts
18-Nov-18 13:55 43.603514 -110.737185 109 6431ft 0kts
18-Nov-18 13:56 43.603514 -110.737185 109 6431ft 0kts
18-Nov-18 13:57 43.603514 -110.737185 109 6431ft 0kts
18-Nov-18 13:58 43.603514 -110.737185 109 6431ft 0kts
18-Nov-18 13:59 43.603514 -110.737185 109 6431ft 0kts
18-Nov-18 14:00 43.603514 -110.737185 109 6431ft 0kts
18-Nov-18 14:01 43.603473 -110.737841 58 6431ft 2kts
18-Nov-18 14:02 43.603036 -110.738242 19 6431ft 0kts
18-Nov-18 14:03 43.603034 -110.738243 19 6431ft 0kts
18-Nov-18 14:04 43.603034 -110.738242 19 6431ft 0kts
18-Nov-18 14:05 43.603034 -110.738242 19 6431ft 0kts
18-Nov-18 14:06 43.603034 -110.738242 19 6431ft 0kts
18-Nov-18 14:07 43.603034 -110.738242 19 6431ft 0kts
18-Nov-18 14:08 43.603034 -110.738243 19 6431ft 0kts
18-Nov-18 14:09 43.603034 -110.738243 19 6431ft 0kts
18-Nov-18 14:10 43.603034 -110.738243 19 6431ft 0kts
18-Nov-18 14:11 43.603034 -110.738243 19 6431ft 0kts
18-Nov-18 14:12 43.603034 -110.738243 19 6431ft 0kts
18-Nov-18 14:13 43.605102 -110.737259 18 6431ft 16kts
18-Nov-18 14:14 43.611584 -110.734080 19 6431ft 26kts
18-Nov-18 14:15 43.614859 -110.732623 346 6431ft 0kts
18-Nov-18 14:16 43.614859 -110.732623 346 6431ft 0kts
18-Nov-18 14:17 43.614859 -110.732623 346 6431ft 0kts
18-Nov-18 14:18 43.614859 -110.732623 346 6431ft 0kts
18-Nov-18 14:19 43.614859 -110.732623 346 6431ft 0kts
18-Nov-18 14:20 43.614859 -110.732623 346 6431ft 0kts
18-Nov-18 14:21 43.614920 -110.732645 342 6431ft 2kts
18-Nov-18 14:22 43.615029 -110.734003 199 6431ft 4kts
18-Nov-18 14:23 43.604694 -110.739029 199 6432ft 135kts
18-Nov-18 14:24 43.562553 -110.764675 208 8104ft 169kts
18-Nov-18 14:25 43.516937 -110.799551 202 9482ft 218kts
18-Nov-18 14:26 43.452042 -110.838621 203 10989ft 291kts
18-Nov-18 14:27 43.374574 -110.887035 204 13301ft 330kts
18-Nov-18 14:28 43.288975 -110.942325 205 15910ft 349kts
18-Nov-18 14:29 43.192513 -110.959788 157 17458ft 402kts
18-Nov-18 14:30 43.121617 -110.840037 130 20016ft 421kts
18-Nov-18 14:31 43.053394 -110.707185 136 21759ft 434kts
18-Nov-18 14:32 42.970381 -110.586653 143 23314ft 443kts
18-Nov-18 14:33 42.872518 -110.554731 211 24758ft 359kts
18-Nov-18 14:34 42.772722 -110.585819 204 26344ft 374kts
18-Nov-18 14:35 42.672561 -110.618946 208 27805ft 374kts
18-Nov-18 14:36 42.573814 -110.658730 214 29126ft 367kts
18-Nov-18 14:37 42.480612 -110.711973 223 30269ft 355kts
18-Nov-18 14:38 42.398796 -110.785315 225 31185ft 356kts
18-Nov-18 14:39 42.316126 -110.860160 228 32024ft 358kts
18-Nov-18 14:40 42.239538 -110.946577 230 32271ft 370kts
18-Nov-18 14:41 42.160318 -111.040227 230 32268ft 389kts
18-Nov-18 14:42 42.079020 -111.136281 231 32260ft 390kts
18-Nov-18 14:43 41.992722 -111.225493 221 32286ft 404kts
18-Nov-18 14:44 41.897905 -111.296929 221 32282ft 404kts
18-Nov-18 14:45 41.807447 -111.361119 211 32280ft 421kts
18-Nov-18 14:46 41.695988 -111.409189 211 32282ft 422kts
18-Nov-18 14:47 41.588723 -111.465825 216 32281ft 412kts
18-Nov-18 14:48 41.484089 -111.526986 216 32279ft 413kts
18-Nov-18 14:49 41.382890 -111.594337 221 32268ft 403kts
18-Nov-18 14:50 41.287021 -111.667147 221 32325ft 401kts
18-Nov-18 14:51 41.197024 -111.750170 221 32321ft 403kts
18-Nov-18 14:52 41.097523 -111.820910 218 32321ft 410kts
18-Nov-18 14:53 40.995007 -111.888073 218 32319ft 412kts
18-Nov-18 14:54 40.895239 -111.953562 218 32318ft 413kts
18-Nov-18 14:55 40.781078 -111.985486 179 32328ft 489kts
18-Nov-18 14:56 40.650796 -111.948744 191 32332ft 464kts
18-Nov-18 14:57 40.522357 -111.939275 191 32294ft 467kts
18-Nov-18 14:58 40.394410 -111.936444 194 32293ft 462kts
18-Nov-18 14:59 40.266122 -111.936285 194 32319ft 463kts
18-Nov-18 15:00 40.137399 -111.936188 195 32317ft 462kts
18-Nov-18 15:01 40.017455 -111.967558 206 32317ft 439kts
18-Nov-18 15:02 39.897186 -111.988894 200 32316ft 451kts
18-Nov-18 15:03 39.772950 -112.006368 200 32320ft 453kts
18-Nov-18 15:04 39.647785 -112.023835 200 32319ft 455kts
18-Nov-18 15:05 39.522472 -112.041274 200 32318ft 456kts
18-Nov-18 15:06 39.397143 -112.058688 200 32317ft 457kts
18-Nov-18 15:07 39.270848 -112.076176 200 32316ft 457kts
18-Nov-18 15:08 39.144400 -112.093644 200 32267ft 459kts
18-Nov-18 15:09 39.017711 -112.111268 200 32259ft 461kts
18-Nov-18 15:10 38.894491 -112.128596 201 32259ft 460kts
18-Nov-18 15:11 38.768468 -112.149034 201 32262ft 461kts
18-Nov-18 15:12 38.641462 -112.169569 201 32261ft 462kts
18-Nov-18 15:13 38.514287 -112.190068 201 32260ft 462kts
18-Nov-18 15:14 38.386556 -112.210504 201 32259ft 463kts
18-Nov-18 15:15 38.259361 -112.230653 201 32258ft 463kts
18-Nov-18 15:16 38.130376 -112.245912 199 32231ft 468kts
18-Nov-18 15:17 38.000727 -112.259995 199 32228ft 467kts
18-Nov-18 15:18 37.879662 -112.272837 199 32230ft 464kts
18-Nov-18 15:19 37.752296 -112.291056 198 32232ft 461kts
18-Nov-18 15:20 37.635644 -112.336509 233 32243ft 416kts
18-Nov-18 15:21 37.559121 -112.444428 236 32231ft 417kts
18-Nov-18 15:22 37.481694 -112.555084 236 32229ft 424kts
18-Nov-18 15:23 37.417080 -112.667026 256 32255ft 409kts
18-Nov-18 15:24 37.380274 -112.802977 256 32243ft 417kts
18-Nov-18 15:25 37.316506 -112.928369 241 32241ft 435kts
18-Nov-18 15:26 37.241409 -113.049338 238 32239ft 444kts
18-Nov-18 15:27 37.163579 -113.170419 238 32237ft 449kts
18-Nov-18 15:28 37.085410 -113.292394 238 32236ft 452kts
18-Nov-18 15:29 37.008969 -113.416596 240 32233ft 453kts
18-Nov-18 15:30 36.938518 -113.533927 240 31474ft 398kts
18-Nov-18 15:31 36.875999 -113.635762 240 28543ft 388kts
18-Nov-18 15:32 36.814932 -113.735889 240 25817ft 376kts
18-Nov-18 15:33 36.753347 -113.838284 240 23068ft 364kts
18-Nov-18 15:34 36.695258 -113.938010 239 20316ft 358kts
18-Nov-18 15:35 36.635756 -114.043293 229 17897ft 372kts
18-Nov-18 15:36 36.565171 -114.134566 229 16220ft 364kts
18-Nov-18 15:37 36.504573 -114.225848 236 16024ft 321kts
18-Nov-18 15:38 36.455646 -114.312093 239 16030ft 296kts
18-Nov-18 15:39 36.413410 -114.398542 245 16048ft 305kts
18-Nov-18 15:40 36.369010 -114.498547 245 15976ft 338kts
18-Nov-18 15:41 36.321090 -114.591503 216 15292ft 324kts
18-Nov-18 15:42 36.242583 -114.640134 202 12512ft 312kts
18-Nov-18 15:43 36.170638 -114.686153 214 9028ft 299kts
18-Nov-18 15:44 36.127091 -114.758279 241 8347ft 241kts
18-Nov-18 15:45 36.092740 -114.827511 241 6594ft 231kts
18-Nov-18 15:46 36.071135 -114.900183 275 5131ft 235kts
18-Nov-18 15:47 36.073516 -114.970387 271 4761ft 154kts
18-Nov-18 15:48 36.073612 -115.022554 271 3831ft 148kts
18-Nov-18 15:49 36.073578 -115.073236 271 2989ft 147kts
18-Nov-18 15:50 36.073654 -115.123425 270 2220ft 145kts
18-Nov-18 15:51 36.074312 -115.154338 299 2123ft 26kts
18-Nov-18 15:52 36.078017 -115.157446 89 2123ft 11kts
18-Nov-18 15:53 36.078023 -115.152958 90 2123ft 14kts
18-Nov-18 15:54 36.077808 -115.147428 94 2123ft 17kts
18-Nov-18 15:55 36.077580 -115.141763 44 2123ft 8kts
18-Nov-18 15:56 36.079280 -115.139470 356 2123ft 10kts
18-Nov-18 15:57 36.079807 -115.139529 355 2123ft 0kts

Navigation Log

Ident Type
Flight plan parsing failed, navigation log unavailable